Time;durP1;ratioP1;P1;durP2;ratioP2;P2;SDS_P1;SDS_P2;PMS_P1;PMS_P2;Temp;Humidity;BMP_temperature;BMP_pressure;BME280_temperature;BME280_humidity;BME280_pressure;Samples;Min_cycle;Max_cycle;Signal;HPM_P1;HPM_P2
2024/01/07 00:01:28;;;;;;;26.85;14.93;;;;;;;3.08;81.85;91697.38;2067005;69;20183;-81
2024/01/07 00:03:54;;;;;;;27.20;14.52;;;;;;;3.14;81.10;91692.22;2070562;69;20152;-81
2024/01/07 00:06:20;;;;;;;26.92;15.00;;;;;;;3.10;81.36;91689.16;2067318;69;20198;-81
2024/01/07 00:08:47;;;;;;;27.23;15.82;;;;;;;3.10;81.40;91691.94;2067956;69;20577;-81
2024/01/07 00:11:13;;;;;;;27.88;14.90;;;;;;;3.09;81.89;91684.19;2062522;69;20655;-81
2024/01/07 00:13:38;;;;;;;27.85;15.43;;;;;;;3.09;81.76;91682.13;2065869;69;20224;-81
2024/01/07 00:16:08;;;;;;;28.05;15.00;;;;;;;3.08;81.56;91697.38;2062300;69;20616;-82
2024/01/07 00:18:35;;;;;;;24.88;14.43;;;;;;;3.07;81.54;91684.78;2065206;69;20248;-83
2024/01/07 00:21:01;;;;;;;27.30;15.18;;;;;;;3.12;81.83;91689.31;2065180;69;20164;-82
2024/01/07 00:23:26;;;;;;;25.67;14.95;;;;;;;3.08;81.36;91688.31;2062047;69;20571;-82
2024/01/07 00:25:52;;;;;;;25.90;14.80;;;;;;;3.04;81.67;91680.41;2065639;69;20152;-82
2024/01/07 00:28:18;;;;;;;28.55;15.40;;;;;;;2.67;83.06;91688.16;2062186;69;20173;-82
2024/01/07 00:30:44;;;;;;;26.42;14.30;;;;;;;2.82;82.98;91681.56;2062175;69;20144;-82
2024/01/07 00:33:13;;;;;;;26.63;14.75;;;;;;;2.83;83.28;91683.75;2062187;69;20145;-82
2024/01/07 00:35:39;;;;;;;26.75;14.93;;;;;;;2.80;83.22;91682.91;2065044;69;20501;-82
2024/01/07 00:38:04;;;;;;;31.35;15.70;;;;;;;2.78;83.45;91688.28;2066517;69;20145;-79
2024/01/07 00:40:30;;;;;;;27.48;14.40;;;;;;;2.67;84.21;91686.09;2068687;69;20133;-80
2024/01/07 00:42:55;;;;;;;29.55;16.58;;;;;;;2.69;83.96;91686.25;2062072;69;20686;-81
2024/01/07 00:45:22;;;;;;;32.60;17.80;;;;;;;2.76;83.97;91688.16;2065160;69;20616;-80
2024/01/07 00:47:48;;;;;;;31.63;17.38;;;;;;;2.71;83.58;91682.91;2065317;69;20552;-80
2024/01/07 00:50:15;;;;;;;31.10;17.08;;;;;;;2.73;83.64;91692.09;2061654;69;20165;-80
2024/01/07 00:52:43;;;;;;;28.30;15.73;;;;;;;2.80;83.44;91696.06;2065451;69;20247;-80
2024/01/07 00:55:09;;;;;;;24.30;13.80;;;;;;;2.56;83.87;91689.44;2062482;69;20560;-81
2024/01/07 00:57:34;;;;;;;23.35;13.07;;;;;;;2.72;83.84;91698.97;2061674;69;20164;-80
2024/01/07 01:00:05;;;;;;;21.60;12.48;;;;;;;2.66;84.14;91695.03;2065257;69;20248;-81
2024/01/07 01:02:31;;;;;;;21.38;12.00;;;;;;;2.30;85.15;91688.25;2062445;69;20145;-81
2024/01/07 01:04:56;;;;;;;20.20;11.90;;;;;;;2.42;85.56;91693.97;2063897;69;20140;-80
2024/01/07 01:07:22;;;;;;;20.00;11.45;;;;;;;2.43;85.19;91695.41;2065149;69;20160;-80
2024/01/07 01:09:48;;;;;;;20.33;11.50;;;;;;;2.76;83.69;91690.94;2062242;69;20149;-80
2024/01/07 01:12:15;;;;;;;18.92;11.00;;;;;;;2.82;83.78;91696.19;2065329;69;20172;-81
2024/01/07 01:14:42;;;;;;;18.45;11.18;;;;;;;2.88;83.16;91702.19;2061644;69;20180;-82
2024/01/07 01:17:08;;;;;;;18.77;11.10;;;;;;;2.83;83.46;91692.09;2065275;69;20252;-80
2024/01/07 01:19:33;;;;;;;19.80;11.23;;;;;;;2.58;84.02;91694.44;2061530;69;20149;-81
2024/01/07 01:21:59;;;;;;;19.80;11.15;;;;;;;2.75;83.63;91706.16;2065209;69;20193;-82
2024/01/07 01:24:25;;;;;;;20.45;11.68;;;;;;;2.64;84.11;91698.38;2065388;69;20153;-82
2024/01/07 01:26:50;;;;;;;19.95;11.95;;;;;;;2.68;83.68;91684.78;2065167;69;20153;-82
2024/01/07 01:29:16;;;;;;;20.60;12.00;;;;;;;2.56;83.95;91695.00;2058843;69;20137;-81
2024/01/07 01:31:42;;;;;;;19.63;11.43;;;;;;;2.71;84.30;91696.78;2061756;69;20145;-81
2024/01/07 01:34:09;;;;;;;18.92;11.10;;;;;;;2.82;83.82;91698.25;2065546;69;20335;-80
2024/01/07 01:36:35;;;;;;;18.63;11.10;;;;;;;2.89;83.05;91702.94;2065289;69;20144;-81
2024/01/07 01:39:02;;;;;;;21.00;12.07;;;;;;;2.98;82.68;91702.22;2068106;69;20238;-81
2024/01/07 01:41:28;;;;;;;20.73;11.82;;;;;;;2.98;82.46;91685.53;2067467;69;20156;-81
2024/01/07 01:43:58;;;;;;;20.58;12.55;;;;;;;3.00;82.32;91694.00;2067427;69;20153;-81
2024/01/07 01:46:24;;;;;;;18.30;11.20;;;;;;;2.86;83.00;91699.28;2062469;69;20145;-81
2024/01/07 01:48:51;;;;;;;18.27;10.73;;;;;;;2.78;82.00;91691.06;2065060;69;20202;-81
2024/01/07 01:51:20;;;;;;;19.55;11.32;;;;;;;2.59;83.50;91685.50;2065206;69;20136;-80
2024/01/07 01:53:49;;;;;;;17.95;10.75;;;;;;;2.70;83.36;91698.84;2065277;69;20148;-81
2024/01/07 01:56:18;;;;;;;18.60;10.48;;;;;;;2.84;82.75;91688.03;2061158;69;20141;-82
2024/01/07 01:58:46;;;;;;;18.27;10.45;;;;;;;2.79;83.21;91697.34;2058673;69;20215;-82
2024/01/07 02:01:12;;;;;;;19.60;11.32;;;;;;;2.49;82.58;91635.50;2061680;69;20141;-82
2024/01/07 02:03:38;;;;;;;17.83;10.80;;;;;;;2.76;83.23;91698.53;2065128;69;20624;-81
2024/01/07 02:06:05;;;;;;;18.30;10.43;;;;;;;2.45;84.25;91707.44;2061475;69;20166;-81
2024/01/07 02:08:32;;;;;;;17.77;10.60;;;;;;;2.69;83.79;91697.34;2066990;69;20157;-82
2024/01/07 02:10:58;;;;;;;18.75;10.10;;;;;;;2.74;83.15;91696.34;2066064;69;20214;-81
2024/01/07 02:13:25;;;;;;;20.10;11.32;;;;;;;2.46;84.84;91694.28;2064752;69;20161;-82
2024/01/07 02:15:53;;;;;;;18.63;10.50;;;;;;;2.73;83.81;91694.88;2064836;69;20510;-81
2024/01/07 02:18:19;;;;;;;19.88;11.18;;;;;;;2.54;84.41;91690.03;2065262;69;20188;-81
2024/01/07 02:20:44;;;;;;;18.25;10.20;;;;;;;2.68;84.17;91695.16;2061734;69;20181;-81
2024/01/07 02:23:10;;;;;;;18.10;10.68;;;;;;;2.54;83.99;91687.25;2059674;69;20156;-81
2024/01/07 02:25:37;;;;;;;19.30;10.57;;;;;;;2.59;84.62;91690.34;2064981;69;20149;-81
2024/01/07 02:28:04;;;;;;;18.25;10.57;;;;;;;2.60;84.57;91697.34;2061911;69;20140;-81
2024/01/07 02:30:31;;;;;;;19.83;10.85;;;;;;;2.39;85.01;91689.59;2061715;69;20508;-80
2024/01/07 02:33:02;;;;;;;19.00;10.88;;;;;;;2.73;84.37;91697.66;2065018;69;20172;-81
2024/01/07 02:35:27;;;;;;;21.17;11.73;;;;;;;2.64;84.14;91692.09;2064871;69;20200;-81
2024/01/07 02:37:53;;;;;;;21.77;11.38;;;;;;;2.77;83.76;91697.94;2066420;69;20149;-80
2024/01/07 02:40:19;;;;;;;21.83;11.63;;;;;;;2.92;83.19;91694.13;2068640;69;20148;-81
2024/01/07 02:42:44;;;;;;;21.92;11.57;;;;;;;2.71;83.49;91696.78;2064999;69;20153;-81
2024/01/07 02:45:10;;;;;;;20.42;11.43;;;;;;;2.82;83.58;91692.69;2064169;69;20188;-80
2024/01/07 02:47:36;;;;;;;21.70;11.43;;;;;;;2.79;83.49;91686.25;2063456;69;20165;-80
2024/01/07 02:50:01;;;;;;;22.00;11.77;;;;;;;2.79;83.37;91689.03;2066143;69;20141;-81
2024/01/07 02:52:33;;;;;;;21.02;11.73;;;;;;;2.93;83.11;91689.31;2065522;69;20217;-81
2024/01/07 02:55:01;;;;;;;20.15;11.10;;;;;;;2.86;82.49;91682.59;2066207;69;20159;-80
2024/01/07 02:57:27;;;;;;;17.15;10.25;;;;;;;2.64;83.83;91687.25;2067018;69;20160;-81
2024/01/07 02:59:55;;;;;;;18.92;10.73;;;;;;;2.74;83.77;91681.72;2064925;69;20176;-81
2024/01/07 03:02:21;;;;;;;18.63;10.43;;;;;;;2.89;82.98;91683.47;2061634;69;20180;-82
2024/01/07 03:04:46;;;;;;;19.20;10.60;;;;;;;2.86;82.91;91690.22;2060810;69;20244;-82
2024/01/07 03:07:12;;;;;;;18.85;10.43;;;;;;;2.96;82.76;91682.59;2065305;69;20145;-81
2024/01/07 03:09:37;;;;;;;15.98;9.82;;;;;;;2.77;82.72;91686.84;2065046;69;20175;-82
2024/01/07 03:12:04;;;;;;;16.17;9.48;;;;;;;2.93;82.50;91686.53;2065051;69;20129;-81
2024/01/07 03:14:30;;;;;;;16.63;10.00;;;;;;;2.96;82.65;91688.88;2064694;69;20615;-81
2024/01/07 03:16:56;;;;;;;17.27;10.25;;;;;;;2.88;82.46;91691.06;2064953;69;20684;-80
2024/01/07 03:19:21;;;;;;;17.63;9.93;;;;;;;3.03;82.31;91690.06;2064635;69;20228;-81
2024/01/07 03:21:49;;;;;;;18.35;10.27;;;;;;;3.05;81.99;91693.69;2063577;69;20624;-83
2024/01/07 03:24:14;;;;;;;16.40;9.57;;;;;;;3.11;81.48;91692.66;2068172;69;20206;-82
2024/01/07 03:26:40;;;;;;;16.13;9.70;;;;;;;3.10;81.23;91688.44;2068385;69;20137;-81
2024/01/07 03:29:06;;;;;;;18.13;9.80;;;;;;;3.09;81.09;91678.63;2065464;69;20589;-82
2024/01/07 03:31:31;;;;;;;15.75;9.25;;;;;;;3.05;81.24;91676.28;2064921;69;20148;-82
2024/01/07 03:33:57;;;;;;;15.60;9.55;;;;;;;3.01;82.10;91676.00;2061783;69;20168;-82
2024/01/07 03:36:23;;;;;;;15.10;9.18;;;;;;;3.13;81.12;91685.22;2062229;69;20156;-81
2024/01/07 03:38:49;;;;;;;12.57;7.88;;;;;;;3.15;80.79;91690.91;2067307;69;20331;-80
2024/01/07 03:41:19;;;;;;;14.40;8.73;;;;;;;2.82;81.86;91689.91;2061535;69;20169;-81
2024/01/07 03:43:47;;;;;;;13.68;7.97;;;;;;;2.86;82.46;91688.16;2061526;69;21004;-81
2024/01/07 03:46:15;;;;;;;12.68;7.60;;;;;;;3.05;81.72;91688.13;2064905;69;20236;-82
2024/01/07 03:48:42;;;;;;;13.60;8.48;;;;;;;2.18;83.95;91679.75;2066222;69;20156;-82
2024/01/07 03:51:08;;;;;;;14.15;8.55;;;;;;;2.13;85.40;91699.47;2064813;69;20173;-81
2024/01/07 03:53:33;;;;;;;12.73;8.02;;;;;;;2.66;83.87;91683.94;2064780;69;20149;-82
2024/01/07 03:55:59;;;;;;;13.07;8.38;;;;;;;2.82;83.25;91695.47;2062406;69;20144;-80
2024/01/07 03:58:25;;;;;;;13.32;8.60;;;;;;;2.43;84.19;91695.41;2061323;69;20168;-81
2024/01/07 04:00:52;;;;;;;14.23;8.05;;;;;;;2.28;85.26;91691.59;2064979;69;20149;-81
2024/01/07 04:03:19;;;;;;;14.20;8.45;;;;;;;2.10;86.28;91686.75;2064700;69;20176;-82
2024/01/07 04:05:45;;;;;;;13.15;8.05;;;;;;;2.09;86.47;91696.38;2064580;69;20180;-83
2024/01/07 04:08:15;;;;;;;13.38;8.05;;;;;;;2.04;86.54;91707.19;2063611;69;20216;-82
2024/01/07 04:10:42;;;;;;;13.15;8.50;;;;;;;2.08;86.74;91698.44;2068273;69;20141;-81
2024/01/07 04:13:08;;;;;;;12.65;8.35;;;;;;;1.98;86.32;91689.34;2067835;69;20184;-81
2024/01/07 04:15:35;;;;;;;11.77;7.70;;;;;;;2.00;87.18;91697.81;2065754;69;20219;-82
2024/01/07 04:18:04;;;;;;;13.15;7.60;;;;;;;1.85;87.02;91693.25;2067224;69;20685;-82
2024/01/07 04:20:32;;;;;;;12.23;7.25;;;;;;;1.94;87.09;91705.69;2063762;69;20133;-82
2024/01/07 04:22:58;;;;;;;13.32;8.13;;;;;;;2.06;86.98;91708.66;2060787;69;20208;-81
2024/01/07 04:25:27;;;;;;;11.25;7.65;;;;;;;2.26;86.34;91699.06;2058256;69;20608;-82
2024/01/07 04:27:53;;;;;;;12.23;7.68;;;;;;;2.09;85.84;91699.16;2060525;69;20573;-83
2024/01/07 04:30:20;;;;;;;13.48;7.93;;;;;;;2.37;85.61;91708.88;2061124;69;20155;-82
2024/01/07 04:32:45;;;;;;;10.82;7.38;;;;;;;2.70;83.73;91714.75;2060595;69;20145;-83
2024/01/07 04:35:12;;;;;;;11.30;7.68;;;;;;;2.78;82.97;91707.75;2064192;69;20589;-83
2024/01/07 04:37:38;;;;;;;11.45;7.20;;;;;;;2.76;83.53;91704.84;2068116;69;20567;-81
2024/01/07 04:40:06;;;;;;;10.50;7.38;;;;;;;2.54;84.29;91717.09;2064031;69;20153;-82
2024/01/07 04:42:32;;;;;;;11.95;7.32;;;;;;;2.78;83.72;91721.66;2063617;69;20188;-82
2024/01/07 04:44:58;;;;;;;10.90;7.47;;;;;;;2.92;82.76;91724.00;2064395;69;20359;-82
2024/01/07 04:47:35;;;;;;;11.55;8.00;;;;;;;2.58;83.14;91708.34;2061294;69;20490;-81
2024/01/07 04:50:04;;;;;;;10.80;7.38;;;;;;;2.67;83.11;91718.72;2065516;69;20260;-80
2024/01/07 04:52:30;;;;;;;10.93;7.03;;;;;;;2.42;84.44;91719.69;2065339;69;20144;-81
2024/01/07 04:55:00;;;;;;;10.13;6.90;;;;;;;2.75;83.41;91714.50;2065256;69;20187;-81
2024/01/07 04:57:26;;;;;;;10.43;7.30;;;;;;;2.81;83.26;91722.53;2064243;69;20593;-80
2024/01/07 04:59:52;;;;;;;10.32;7.13;;;;;;;2.88;82.64;91709.81;2064265;69;20199;-81
2024/01/07 05:02:20;;;;;;;11.10;7.70;;;;;;;2.78;82.82;91720.91;2062069;69;20786;-82
2024/01/07 05:04:45;;;;;;;10.40;7.38;;;;;;;2.76;83.28;91718.00;2061632;69;20159;-82
2024/01/07 05:07:13;;;;;;;10.63;7.50;;;;;;;2.90;82.66;91721.81;2065767;69;20227;-82
2024/01/07 05:09:39;;;;;;;10.07;6.70;;;;;;;2.91;82.46;91719.75;2063585;69;20695;-81
2024/01/07 05:12:06;;;;;;;9.70;6.68;;;;;;;2.84;82.18;91723.41;2062696;69;20259;-82
2024/01/07 05:14:33;;;;;;;10.52;7.05;;;;;;;2.89;82.00;91728.69;2064991;69;20187;-83
2024/01/07 05:16:58;;;;;;;10.82;7.43;;;;;;;2.87;82.30;91730.59;2065070;69;20251;-82
2024/01/07 05:19:24;;;;;;;13.75;7.25;;;;;;;2.84;82.64;91721.38;2061180;69;20572;-83
2024/01/07 05:21:50;;;;;;;9.48;6.78;;;;;;;2.86;82.67;91732.63;2065074;69;20144;-83
2024/01/07 05:24:16;;;;;;;10.90;7.05;;;;;;;2.97;82.36;91729.25;2061994;69;20148;-83
2024/01/07 05:26:43;;;;;;;10.88;7.25;;;;;;;2.80;82.67;91719.03;2065194;69;20149;-84
2024/01/07 05:29:09;;;;;;;10.27;6.53;;;;;;;2.92;82.36;91724.72;2065172;69;20134;-83
2024/01/07 05:31:40;;;;;;;11.63;7.80;;;;;;;2.82;81.94;91728.81;2061989;69;20148;-83
2024/01/07 05:34:09;;;;;;;13.27;7.22;;;;;;;2.98;81.92;91732.78;2065167;69;20171;-83
2024/01/07 05:36:35;;;;;;;9.80;7.07;;;;;;;2.95;82.00;91729.13;2065293;69;20160;-82
2024/01/07 05:39:02;;;;;;;11.52;7.45;;;;;;;2.99;81.84;91734.97;2065080;69;20129;-84
2024/01/07 05:41:28;;;;;;;10.93;7.40;;;;;;;3.02;81.42;91735.84;2065277;69;20161;-83
2024/01/07 05:43:55;;;;;;;10.82;7.05;;;;;;;3.02;81.78;91735.84;2061979;69;20509;-84
2024/01/07 05:46:21;;;;;;;11.23;7.60;;;;;;;3.02;81.79;91738.63;2065112;69;20593;-80
2024/01/07 05:48:49;;;;;;;11.38;7.07;;;;;;;2.69;83.03;91735.53;2061711;69;20145;-82
2024/01/07 05:51:15;;;;;;;13.13;8.20;;;;;;;2.40;83.78;91738.28;2061862;69;20260;-85
2024/01/07 05:53:43;;;;;;;14.63;9.07;;;;;;;2.54;84.42;91745.59;2064653;69;20237;-83
2024/01/07 05:56:08;;;;;;;14.95;8.93;;;;;;;2.64;84.12;91750.44;2059125;69;20636;-84
2024/01/07 05:58:34;;;;;;;15.07;9.18;;;;;;;2.86;83.23;91740.97;2065159;69;20178;-82
2024/01/07 06:01:01;;;;;;;15.25;9.52;;;;;;;2.97;82.67;91742.44;2061845;69;20141;-82
2024/01/07 06:03:28;;;;;;;14.45;8.80;;;;;;;3.01;82.08;91739.94;2065024;69;20157;-81
2024/01/07 06:05:53;;;;;;;14.23;8.65;;;;;;;2.98;82.08;91743.91;2061737;69;20144;-81
2024/01/07 06:08:21;;;;;;;12.75;8.25;;;;;;;3.06;82.00;91742.44;2064996;69;20137;-82
2024/01/07 06:10:46;;;;;;;11.82;8.45;;;;;;;3.00;81.27;91742.00;2061836;69;20525;-82
2024/01/07 06:13:12;;;;;;;15.20;9.40;;;;;;;2.80;81.30;91746.09;2061684;69;20160;-81
2024/01/07 06:15:39;;;;;;;14.88;9.35;;;;;;;2.88;82.35;91748.72;2061859;69;20157;-81
2024/01/07 06:18:05;;;;;;;16.13;9.43;;;;;;;2.97;82.04;91753.56;2061568;69;20595;-80
2024/01/07 06:20:32;;;;;;;13.10;8.75;;;;;;;3.03;81.29;91751.22;2064876;69;20623;-80
2024/01/07 06:22:59;;;;;;;15.48;9.27;;;;;;;3.06;81.14;91747.25;2064948;69;20176;-81
2024/01/07 06:25:26;;;;;;;16.90;9.43;;;;;;;3.09;80.84;91757.22;2064893;69;20149;-77
2024/01/07 06:27:52;;;;;;;17.17;10.18;;;;;;;2.99;81.06;91753.72;2065133;69;20141;-78
2024/01/07 06:30:19;;;;;;;14.73;9.55;;;;;;;2.85;82.02;91752.69;2065185;69;20230;-78
2024/01/07 06:32:45;;;;;;;24.38;14.05;;;;;;;2.77;82.37;91756.31;2065084;69;20144;-81
2024/01/07 06:35:11;;;;;;;19.80;12.35;;;;;;;2.78;82.39;91763.34;2064885;69;20192;-82
2024/01/07 06:37:37;;;;;;;28.90;15.75;;;;;;;2.86;82.21;91754.88;2061684;69;20295;-80
2024/01/07 06:40:03;;;;;;;23.50;13.20;;;;;;;2.79;82.65;91764.06;2065128;69;20141;-81
2024/01/07 06:42:29;;;;;;;21.35;12.35;;;;;;;3.03;81.30;91759.56;2065017;69;20211;-83
2024/01/07 06:44:54;;;;;;;20.10;12.30;;;;;;;2.99;81.84;91768.34;2061705;69;20599;-79
2024/01/07 06:47:20;;;;;;;17.65;10.73;;;;;;;3.04;81.44;91778.44;2064970;69;20721;-79
2024/01/07 06:49:46;;;;;;;16.70;10.25;;;;;;;2.97;81.66;91773.00;2064846;69;20218;-79
2024/01/07 06:52:12;;;;;;;17.05;10.50;;;;;;;3.00;81.18;91764.25;2065151;69;20175;-80
2024/01/07 06:54:40;;;;;;;19.55;10.60;;;;;;;2.90;80.97;91773.91;2064874;69;20497;-80
2024/01/07 06:57:08;;;;;;;17.98;11.00;;;;;;;2.89;80.40;91769.66;2065031;69;20141;-80
2024/01/07 06:59:35;;;;;;;18.60;11.30;;;;;;;2.80;82.36;91776.66;2065015;69;20567;-80
2024/01/07 07:02:00;;;;;;;22.58;12.45;;;;;;;2.70;82.63;91773.13;2064929;69;20144;-81
2024/01/07 07:04:27;;;;;;;23.98;11.65;;;;;;;2.82;82.64;91768.47;2064977;69;20232;-81
2024/01/07 07:06:55;;;;;;;17.52;10.88;;;;;;;2.77;82.19;91777.81;2065087;69;20148;-81
2024/01/07 07:09:21;;;;;;;21.40;11.95;;;;;;;2.73;82.83;91775.47;2065142;69;20198;-81
2024/01/07 07:11:52;;;;;;;22.27;11.98;;;;;;;2.83;82.35;91783.09;2065113;69;20133;-81
2024/01/07 07:14:19;;;;;;;22.67;11.93;;;;;;;2.67;82.98;91777.81;2065137;69;20172;-80
2024/01/07 07:16:47;;;;;;;20.15;11.63;;;;;;;2.75;82.75;91772.13;2059060;69;20141;-81
2024/01/07 07:19:16;;;;;;;23.90;13.77;;;;;;;2.59;82.55;91787.59;2062388;69;20195;-80
2024/01/07 07:21:44;;;;;;;21.88;12.35;;;;;;;2.83;82.74;91789.38;2065379;69;20222;-80
2024/01/07 07:24:11;;;;;;;22.02;13.52;;;;;;;2.92;82.41;91794.22;2065518;69;20220;-82
2024/01/07 07:26:40;;;;;;;21.35;12.93;;;;;;;2.90;82.25;91787.81;2062049;69;20674;-80
2024/01/07 07:29:09;;;;;;;21.17;12.18;;;;;;;2.48;83.28;91791.66;2065125;69;20236;-81
2024/01/07 07:31:37;;;;;;;22.10;12.93;;;;;;;2.68;83.55;91803.56;2061998;69;20184;-80
2024/01/07 07:34:08;;;;;;;18.05;11.25;;;;;;;2.71;82.11;91803.13;2061986;69;20172;-82
2024/01/07 07:36:34;;;;;;;18.10;10.70;;;;;;;2.88;82.09;91807.09;2065580;69;20141;-81
2024/01/07 07:39:00;;;;;;;19.80;11.65;;;;;;;2.97;82.00;91807.09;2061883;69;20168;-82
2024/01/07 07:41:26;;;;;;;20.38;11.63;;;;;;;3.02;81.75;91805.34;2062361;69;20228;-82
2024/01/07 07:43:52;;;;;;;19.85;11.93;;;;;;;3.02;82.14;91800.56;2065640;69;20250;-82
2024/01/07 07:46:17;;;;;;;19.70;11.48;;;;;;;3.03;81.96;91807.56;2065390;69;20144;-82
2024/01/07 07:48:43;;;;;;;23.58;14.05;;;;;;;2.85;82.38;91811.06;2065126;69;20224;-82
2024/01/07 07:51:10;;;;;;;25.08;13.32;;;;;;;2.88;83.15;91818.22;2065731;69;20145;-84
2024/01/07 07:53:39;;;;;;;24.00;12.88;;;;;;;2.29;84.98;91812.50;2065720;69;20145;-83
2024/01/07 07:56:08;;;;;;;22.77;12.20;;;;;;;2.39;85.59;91811.81;2065710;69;20235;-83
2024/01/07 07:58:34;;;;;;;41.13;21.70;;;;;;;2.41;85.15;91814.72;2065358;69;20605;-82
2024/01/07 08:01:00;;;;;;;37.80;21.70;;;;;;;2.43;85.36;91815.63;2064932;69;20141;-80
2024/01/07 08:03:25;;;;;;;39.97;23.38;;;;;;;2.73;84.40;91813.66;2065000;69;20175;-80
2024/01/07 08:05:53;;;;;;;32.33;19.10;;;;;;;2.71;84.09;91814.25;2064974;69;20137;-79
2024/01/07 08:08:18;;;;;;;39.00;20.95;;;;;;;2.67;84.76;91816.00;2061580;69;20169;-80
2024/01/07 08:10:45;;;;;;;32.15;17.80;;;;;;;2.95;82.25;91829.22;2065012;69;20241;-81
2024/01/07 08:13:11;;;;;;;26.02;14.30;;;;;;;3.12;82.64;91828.38;2065134;69;20137;-82
2024/01/07 08:15:38;;;;;;;28.42;14.20;;;;;;;3.18;83.09;91830.84;2061912;69;20280;-81
2024/01/07 08:18:07;;;;;;;22.38;12.82;;;;;;;3.14;84.69;91825.72;2061621;69;20252;-81
2024/01/07 08:20:32;;;;;;;21.15;13.27;;;;;;;3.30;81.71;91826.91;2061595;69;20148;-83
2024/01/07 08:22:58;;;;;;;24.02;13.90;;;;;;;3.47;81.97;91828.06;2061222;69;20173;-81
2024/01/07 08:25:24;;;;;;;24.05;13.20;;;;;;;3.56;81.90;91835.69;2061581;69;20156;-80
2024/01/07 08:27:51;;;;;;;22.65;13.57;;;;;;;3.38;82.39;91835.09;2061642;69;20149;-81
2024/01/07 08:30:23;;;;;;;36.47;18.58;;;;;;;3.56;82.05;91839.19;2061700;69;20149;-81
2024/01/07 08:32:49;;;;;;;26.38;13.70;;;;;;;3.27;83.29;91836.41;2061101;69;20220;-81
2024/01/07 08:35:15;;;;;;;24.73;12.52;;;;;;;3.40;82.53;91834.53;2061573;69;20188;-80
2024/01/07 08:37:41;;;;;;;27.65;14.48;;;;;;;3.46;82.41;91841.25;2061489;69;20175;-79
2024/01/07 08:40:09;;;;;;;32.60;17.08;;;;;;;3.37;83.34;91839.19;2061625;69;20141;-80
2024/01/07 08:42:35;;;;;;;25.40;13.98;;;;;;;3.07;83.96;91837.72;2061555;69;20152;-79
2024/01/07 08:45:03;;;;;;;26.20;15.40;;;;;;;3.47;83.34;91839.19;2062078;69;20133;-79
2024/01/07 08:47:31;;;;;;;28.33;15.27;;;;;;;3.23;83.22;91847.25;2061515;69;20140;-79
2024/01/07 08:49:57;;;;;;;31.30;14.82;;;;;;;3.03;84.36;91840.94;2061860;69;20137;-80
2024/01/07 08:52:25;;;;;;;24.83;14.02;;;;;;;3.47;82.84;91839.19;2061957;69;20577;-80
2024/01/07 08:54:51;;;;;;;22.98;13.57;;;;;;;3.61;81.73;91853.41;2061643;69;20129;-80
2024/01/07 08:57:16;;;;;;;27.17;14.80;;;;;;;3.62;82.42;91850.06;2062207;69;20225;-81
2024/01/07 08:59:43;;;;;;;32.35;13.77;;;;;;;3.71;81.03;91849.31;2062403;69;20229;-80
2024/01/07 09:02:10;;;;;;;23.42;13.40;;;;;;;3.93;80.82;91855.72;2061814;69;20180;-80
2024/01/07 09:04:35;;;;;;;20.80;12.90;;;;;;;3.97;80.20;91861.59;2062020;69;20194;-81
2024/01/07 09:07:02;;;;;;;20.13;11.45;;;;;;;3.97;80.70;91856.00;2062175;69;20133;-80
2024/01/07 09:09:28;;;;;;;15.60;10.20;;;;;;;3.83;81.50;91855.75;2062126;69;20235;-80
2024/01/07 09:11:56;;;;;;;16.23;9.90;;;;;;;4.05;80.33;91872.56;2061938;69;20133;-79
2024/01/07 09:14:22;;;;;;;15.25;9.13;;;;;;;4.03;80.85;91862.03;2061694;69;20156;-81
2024/01/07 09:16:47;;;;;;;11.80;7.40;;;;;;;4.07;80.01;91859.50;2061964;69;20149;-82
2024/01/07 09:19:14;;;;;;;10.30;6.18;;;;;;;3.26;80.16;91848.88;2061995;69;20149;-81
2024/01/07 09:21:41;;;;;;;11.82;7.50;;;;;;;3.62;79.78;91866.75;2062867;69;20167;-80
2024/01/07 09:24:09;;;;;;;10.02;6.60;;;;;;;3.39;80.33;91858.84;2062015;69;20615;-81
2024/01/07 09:26:35;;;;;;;10.60;6.90;;;;;;;3.51;81.57;91873.63;2062065;69;20632;-81
2024/01/07 09:29:01;;;;;;;10.10;5.93;;;;;;;3.76;80.34;91873.34;2065358;69;20149;-81
2024/01/07 09:31:27;;;;;;;10.45;6.22;;;;;;;3.88;79.67;91865.13;2065308;69;20141;-81
2024/01/07 09:33:53;;;;;;;10.32;6.85;;;;;;;3.92;80.60;91868.19;2059159;69;20156;-80
2024/01/07 09:36:20;;;;;;;12.45;7.15;;;;;;;3.72;79.38;91867.47;2065384;69;20141;-82
2024/01/07 09:38:46;;;;;;;9.82;6.47;;;;;;;2.84;82.71;91870.72;2062069;69;20296;-81
2024/01/07 09:41:11;;;;;;;9.70;6.70;;;;;;;3.55;81.95;91865.56;2065838;69;20153;-82
2024/01/07 09:43:39;;;;;;;11.18;6.95;;;;;;;3.74;80.12;91875.22;2062017;69;20244;-82
2024/01/07 09:46:04;;;;;;;12.80;6.82;;;;;;;3.90;80.89;91870.13;2061958;69;20165;-82
2024/01/07 09:48:33;;;;;;;11.15;6.90;;;;;;;4.01;80.26;91878.59;2065348;69;20493;-81
2024/01/07 09:51:00;;;;;;;11.07;7.07;;;;;;;4.15;78.67;91881.63;2065060;69;20563;-83
2024/01/07 09:53:32;;;;;;;9.25;6.38;;;;;;;3.73;79.65;91873.78;2064934;69;20544;-83
2024/01/07 09:56:26;;;;;;;11.02;7.57;;;;;;;3.86;79.79;91875.38;2062200;69;20629;-82
2024/01/07 09:58:51;;;;;;;10.38;7.13;;;;;;;3.99;78.72;91880.50;2062011;69;20140;-81
2024/01/07 10:01:19;;;;;;;12.70;8.13;;;;;;;3.61;79.77;91876.41;2065613;69;20532;-81
2024/01/07 10:03:48;;;;;;;13.30;7.60;;;;;;;4.09;79.68;91878.44;2065160;69;20168;-81
2024/01/07 10:06:18;;;;;;;10.95;6.95;;;;;;;4.25;77.72;91879.56;2065313;69;20133;-81
2024/01/07 10:08:46;;;;;;;11.98;7.03;;;;;;;4.42;78.52;91877.91;2065441;69;20240;-82
2024/01/07 10:11:14;;;;;;;13.63;7.72;;;;;;;4.33;78.18;91887.75;2065181;69;20629;-83
2024/01/07 10:13:41;;;;;;;10.90;6.88;;;;;;;4.40;78.18;91884.09;2065216;69;20524;-82
2024/01/07 10:16:08;;;;;;;10.45;7.05;;;;;;;4.49;77.91;91877.00;2065428;69;20153;-82
2024/01/07 10:18:34;;;;;;;13.50;7.30;;;;;;;4.45;78.63;91874.69;2065179;69;20554;-82
2024/01/07 10:21:07;;;;;;;13.52;7.63;;;;;;;4.00;79.46;91881.97;2065294;69;20141;-82
2024/01/07 10:23:33;;;;;;;14.32;8.85;;;;;;;3.76;81.11;91873.34;2065283;69;20141;-83
2024/01/07 10:26:02;;;;;;;21.08;11.18;;;;;;;4.16;79.87;91874.75;2061947;69;20180;-81
2024/01/07 10:28:28;;;;;;;22.08;11.85;;;;;;;4.36;78.86;91872.66;2062987;69;20156;-81
2024/01/07 10:30:53;;;;;;;13.15;8.77;;;;;;;4.20;80.10;91877.81;2065310;69;20593;-79
2024/01/07 10:33:22;;;;;;;21.58;10.30;;;;;;;3.71;81.80;91877.16;2061976;69;20136;-81
2024/01/07 10:36:03;;;;;;;64.78;26.15;;;;;;;4.22;80.68;91875.19;2061885;69;20597;-82
2024/01/07 10:38:31;;;;;;;47.53;19.85;;;;;;;4.30;80.38;91872.94;2065074;69;20675;-80
2024/01/07 10:41:00;;;;;;;33.15;17.13;;;;;;;4.30;79.49;91866.66;2062026;69;20149;-81
2024/01/07 10:43:30;;;;;;;29.15;14.07;;;;;;;3.96;80.29;91865.69;2065168;69;20582;-82
2024/01/07 10:46:00;;;;;;;24.88;15.45;;;;;;;4.16;79.67;91868.44;2061883;69;20676;-84
2024/01/07 10:48:32;;;;;;;15.75;9.50;;;;;;;4.40;79.09;91867.38;2065080;69;20689;-81
2024/01/07 10:51:00;;;;;;;14.27;9.00;;;;;;;4.73;78.20;91867.53;2061968;69;20137;-81
2024/01/07 10:53:33;;;;;;;15.07;9.55;;;;;;;4.82;77.49;91866.03;2065383;69;20141;-79
2024/01/07 10:56:11;;;;;;;17.73;10.27;;;;;;;4.90;76.57;91872.16;2062114;69;20544;-81
2024/01/07 10:58:38;;;;;;;16.67;10.27;;;;;;;5.03;76.91;91873.69;2065700;69;20624;-82
2024/01/07 11:01:06;;;;;;;19.70;9.40;;;;;;;4.98;76.03;91863.59;2062603;69;20160;-82
2024/01/07 11:03:55;;;;;;;13.50;8.05;;;;;;;4.20;77.43;91852.00;2065651;69;20129;-82
2024/01/07 11:06:33;;;;;;;15.18;9.32;;;;;;;4.01;78.39;91867.44;2062233;69;20157;-82
2024/01/07 11:09:26;;;;;;;13.00;9.00;;;;;;;4.40;78.17;91870.16;2066078;69;20161;-82
2024/01/07 11:11:54;;;;;;;13.90;8.85;;;;;;;4.29;77.81;91865.19;2065608;69;20243;-80
2024/01/07 11:14:47;;;;;;;15.48;9.35;;;;;;;4.18;78.34;91863.75;2065859;69;20199;-82
2024/01/07 11:17:13;;;;;;;13.77;9.30;;;;;;;3.81;78.81;91863.22;2067413;69;20149;-79
2024/01/07 11:19:51;;;;;;;14.52;9.15;;;;;;;3.35;80.97;91858.53;2068190;69;20141;-81
2024/01/07 11:22:27;;;;;;;14.35;9.40;;;;;;;3.74;80.53;91858.53;2063778;69;20159;-82
2024/01/07 11:24:57;;;;;;;12.82;7.70;;;;;;;3.50;80.19;91865.88;2063797;69;20144;-80
2024/01/07 11:27:24;;;;;;;10.13;6.50;;;;;;;3.77;80.10;91854.59;2063492;69;20583;-80
2024/01/07 11:29:56;;;;;;;10.15;6.28;;;;;;;3.40;79.83;91856.78;2066669;69;20176;-80